Cherrytown, New York
Current Conditions -  °F | °C
As of 5:54 AM on Sunday 23 Nov 2014 (Local Time) from KMGJ Reporting Station
Overcast Overcast  
Wind Chill: 33°   Ceiling: 7500
Heat Index: 40°   Visibility: 10mi
Dew Point: 21°   Wind: 12mph
Humidity: 47%   Direction: 220°SW
Pressure: 30.14"   Gusts: NA
Location:  41.7943°N, 74.3146°W
Report Text: KMGJ 231054Z AUTO 22010KT 10SM SCT050 BKN075 OVC100 04/M06 A3014 RMK AO2 SLP210 T00441061 TSNO
Loading
Personal Weather Stations






























Interactive Weather Map New forecast layout! Learn more

10-Day Weather Forecast

Advertisements
Track Severe Weather on mobile